Time;durP1;ratioP1;P1;durP2;ratioP2;P2;SDS_P1;SDS_P2;PMS_P1;PMS_P2;Temp;Humidity;BMP_temperature;BMP_pressure;BME280_temperature;BME280_humidity;BME280_pressure;Samples;Min_cycle;Max_cycle;Signal;HPM_P1;HPM_P2
2023/04/03 00:00:25;;;;;;;;;;;6.80;32.60;;;;;;5116869;27;20362;-73
2023/04/03 00:02:51;;;;;;;;;;;6.80;38.10;;;;;;5116769;27;19908;-73
2023/04/03 00:05:17;;;;;;;;;;;6.70;42.60;;;;;;5135179;27;20375;-72
2023/04/03 00:07:42;;;;;;;;;;;6.60;46.90;;;;;;5135104;27;19907;-72
2023/04/03 00:10:08;;;;;;;;;;;6.80;39.40;;;;;;5116684;27;19969;-73
2023/04/03 00:12:34;;;;;;;;;;;6.80;29.40;;;;;;5135222;27;19914;-72
2023/04/03 00:14:59;;;;;;;;;;;6.80;29.50;;;;;;5135064;27;20329;-72
2023/04/03 00:17:25;;;;;;;;;;;6.90;27.80;;;;;;5135284;27;19908;-72
2023/04/03 00:19:50;;;;;;;;;;;6.90;24.60;;;;;;5135005;27;20014;-72
2023/04/03 00:22:16;;;;;;;;;;;6.90;25.50;;;;;;5134945;27;20020;-73
2023/04/03 00:24:42;;;;;;;;;;;6.90;26.40;;;;;;5134897;27;19957;-72
2023/04/03 00:27:07;;;;;;;;;;;6.90;26.40;;;;;;5134839;27;19907;-71
2023/04/03 00:29:33;;;;;;;;;;;6.80;28.90;;;;;;5134843;27;19908;-72
2023/04/03 00:31:58;;;;;;;;;;;6.60;36.00;;;;;;5134806;27;19907;-74
2023/04/03 00:34:24;;;;;;;;;;;6.60;36.10;;;;;;5134818;27;19907;-72
2023/04/03 00:36:51;;;;;;;;;;;6.70;30.20;;;;;;5134939;27;19930;-71
2023/04/03 00:39:16;;;;;;;;;;;6.70;23.80;;;;;;5116008;28;20291;-73
2023/04/03 00:41:42;;;;;;;;;;;6.70;19.30;;;;;;5134846;28;19904;-72
2023/04/03 00:44:26;;;;;;;;;;;6.50;15.10;;;;;;5134657;28;19915;-73
2023/04/03 00:46:51;;;;;;;;;;;6.50;13.60;;;;;;5135074;28;20379;-73
2023/04/03 00:49:17;;;;;;;;;;;6.40;12.40;;;;;;5134950;28;19957;-72
2023/04/03 00:51:43;;;;;;;;;;;6.20;13.40;;;;;;5134619;28;19907;-72
2023/04/03 00:54:08;;;;;;;;;;;6.10;16.60;;;;;;5134547;28;20002;-73
2023/04/03 00:56:35;;;;;;;;;;;5.80;25.90;;;;;;5134736;27;19914;-71
2023/04/03 00:59:01;;;;;;;;;;;5.80;32.30;;;;;;5134552;28;20290;-72
2023/04/03 01:01:28;;;;;;;;;;;5.90;30.90;;;;;;5135426;27;19915;-73
2023/04/03 01:03:54;;;;;;;;;;;5.80;35.00;;;;;;5138756;27;19998;-73
2023/04/03 01:06:27;;;;;;;;;;;5.70;36.20;;;;;;5138764;27;19915;-71
2023/04/03 01:08:53;;;;;;;;;;;5.80;36.80;;;;;;5138595;27;19907;-71
2023/04/03 01:11:20;;;;;;;;;;;5.90;31.20;;;;;;5138709;27;20485;-72
2023/04/03 01:13:46;;;;;;;;;;;5.80;34.30;;;;;;5138445;27;19956;-74
2023/04/03 01:16:11;;;;;;;;;;;5.70;41.40;;;;;;5138535;27;19998;-72
2023/04/03 01:18:38;;;;;;;;;;;5.60;47.20;;;;;;5138357;27;19914;-73
2023/04/03 01:21:10;;;;;;;;;;;5.70;47.00;;;;;;5138232;27;20325;-73
2023/04/03 01:23:35;;;;;;;;;;;5.70;44.20;;;;;;5138464;27;19907;-72
2023/04/03 01:26:02;;;;;;;;;;;5.60;46.40;;;;;;5138386;27;19915;-72
2023/04/03 01:28:29;;;;;;;;;;;5.60;44.30;;;;;;5138144;27;19914;-72
2023/04/03 01:31:14;;;;;;;;;;;5.60;46.10;;;;;;5119654;27;19913;-72
2023/04/03 01:33:40;;;;;;;;;;;5.70;45.10;;;;;;5119669;27;19908;-73
2023/04/03 01:36:06;;;;;;;;;;;5.70;38.60;;;;;;5138045;27;19956;-74
2023/04/03 01:38:31;;;;;;;;;;;5.70;32.70;;;;;;5138054;27;19950;-71
2023/04/03 01:40:57;;;;;;;;;;;5.80;26.70;;;;;;5137697;27;19980;-74
2023/04/03 01:43:23;;;;;;;;;;;5.70;22.30;;;;;;5137889;27;19908;-74
2023/04/03 01:45:52;;;;;;;;;;;5.60;21.30;;;;;;5137951;27;19947;-71
2023/04/03 01:48:18;;;;;;;;;;;5.50;22.20;;;;;;5137916;27;19907;-72
2023/04/03 01:50:43;;;;;;;;;;;5.40;27.70;;;;;;5137786;27;19952;-72
2023/04/03 01:53:09;;;;;;;;;;;5.40;29.20;;;;;;5119255;27;19907;-72
2023/04/03 01:55:34;;;;;;;;;;;5.30;29.80;;;;;;5137697;27;19911;-72
2023/04/03 01:58:00;;;;;;;;;;;5.20;33.90;;;;;;5137520;27;19914;-74
2023/04/03 02:00:26;;;;;;;;;;;5.10;40.80;;;;;;5137788;27;20069;-73
2023/04/03 02:02:52;;;;;;;;;;;5.10;38.80;;;;;;5119098;27;19953;-73
2023/04/03 02:05:17;;;;;;;;;;;5.10;40.70;;;;;;5137446;27;19942;-71
2023/04/03 02:07:43;;;;;;;;;;;5.10;42.20;;;;;;5137716;27;19956;-72
2023/04/03 02:10:09;;;;;;;;;;;5.20;41.40;;;;;;5137389;27;19908;-73
2023/04/03 02:12:34;;;;;;;;;;;5.30;36.40;;;;;;5136880;27;19962;-73
2023/04/03 02:15:00;;;;;;;;;;;5.30;34.00;;;;;;5137325;27;19968;-74
2023/04/03 02:17:26;;;;;;;;;;;5.30;32.40;;;;;;5118812;27;19914;-72
2023/04/03 02:19:51;;;;;;;;;;;5.40;30.60;;;;;;5137148;27;19959;-72
2023/04/03 02:22:17;;;;;;;;;;;5.40;29.70;;;;;;5137359;27;19908;-73
2023/04/03 02:24:43;;;;;;;;;;;5.30;31.70;;;;;;5137141;27;19915;-72
2023/04/03 02:27:08;;;;;;;;;;;5.30;31.90;;;;;;5136724;27;19950;-72
2023/04/03 02:29:34;;;;;;;;;;;5.20;32.00;;;;;;5137204;27;19907;-72
2023/04/03 02:31:59;;;;;;;;;;;5.30;31.80;;;;;;5137025;27;19946;-73
2023/04/03 02:34:25;;;;;;;;;;;5.30;32.70;;;;;;5136929;27;19908;-72
2023/04/03 02:36:51;;;;;;;;;;;5.10;39.60;;;;;;5136958;27;19908;-74
2023/04/03 02:39:16;;;;;;;;;;;5.00;46.60;;;;;;5136629;27;20347;-72
2023/04/03 02:41:42;;;;;;;;;;;5.00;46.50;;;;;;5136938;27;20359;-73
2023/04/03 02:44:09;;;;;;;;;;;5.10;46.70;;;;;;5136752;27;19961;-72
2023/04/03 02:46:34;;;;;;;;;;;5.00;30.30;;;;;;5136654;27;19937;-72
2023/04/03 02:49:00;;;;;;;;;;;4.90;34.30;;;;;;5136792;27;19913;-73
2023/04/03 02:51:26;;;;;;;;;;;4.70;29.10;;;;;;5136578;27;20317;-72
2023/04/03 02:53:51;;;;;;;;;;;4.60;38.10;;;;;;5136979;27;19922;-72
2023/04/03 02:56:18;;;;;;;;;;;4.70;43.10;;;;;;5136502;27;20385;-72
2023/04/03 02:58:44;;;;;;;;;;;4.80;42.00;;;;;;5136396;27;19990;-73
2023/04/03 03:01:10;;;;;;;;;;;4.90;45.80;;;;;;5136457;27;20333;-73
2023/04/03 03:03:35;;;;;;;;;;;5.00;42.60;;;;;;5117886;27;19907;-72
2023/04/03 03:06:05;;;;;;;;;;;5.10;41.10;;;;;;5136756;27;20348;-72
2023/04/03 03:08:30;;;;;;;;;;;5.30;37.70;;;;;;5136240;27;19907;-72
2023/04/03 03:10:56;;;;;;;;;;;5.50;36.60;;;;;;5136299;27;19956;-73
2023/04/03 03:13:22;;;;;;;;;;;5.60;32.70;;;;;;5136172;27;19915;-73
2023/04/03 03:15:47;;;;;;;;;;;5.60;29.00;;;;;;5136130;27;20364;-72
2023/04/03 03:18:13;;;;;;;;;;;5.60;27.00;;;;;;5136091;27;19912;-72
2023/04/03 03:20:38;;;;;;;;;;;5.60;26.00;;;;;;5136014;27;20334;-72
2023/04/03 03:23:04;;;;;;;;;;;5.60;25.40;;;;;;5135917;27;19907;-74
2023/04/03 03:25:29;;;;;;;;;;;5.60;26.10;;;;;;5135224;27;19932;-72
2023/04/03 03:27:55;;;;;;;;;;;5.60;25.60;;;;;;5135957;27;20360;-73
2023/04/03 03:30:21;;;;;;;;;;;5.60;26.80;;;;;;5135798;27;19952;-72
2023/04/03 03:32:46;;;;;;;;;;;5.60;28.60;;;;;;5136252;27;19912;-72
2023/04/03 03:35:12;;;;;;;;;;;5.70;27.80;;;;;;5136092;27;19998;-72
2023/04/03 03:37:37;;;;;;;;;;;5.80;28.20;;;;;;5135950;27;19907;-74
2023/04/03 03:40:03;;;;;;;;;;;5.90;28.10;;;;;;5135439;27;19920;-71
2023/04/03 03:42:29;;;;;;;;;;;5.90;25.00;;;;;;5135641;27;19908;-73
2023/04/03 03:44:54;;;;;;;;;;;6.00;26.10;;;;;;5135553;27;19907;-73
2023/04/03 03:47:20;;;;;;;;;;;5.90;25.60;;;;;;5117053;27;19908;-72
2023/04/03 03:49:46;;;;;;;;;;;6.00;28.60;;;;;;5117034;27;19941;-72
2023/04/03 03:52:11;;;;;;;;;;;6.00;27.40;;;;;;5116961;27;20009;-73
2023/04/03 03:54:38;;;;;;;;;;;6.10;25.80;;;;;;5135476;27;19918;-73
2023/04/03 03:57:03;;;;;;;;;;;6.20;23.40;;;;;;5135536;27;19908;-73
2023/04/03 03:59:29;;;;;;;;;;;6.20;23.60;;;;;;5116830;27;20002;-72
2023/04/03 04:01:55;;;;;;;;;;;6.30;23.10;;;;;;5135268;27;19908;-73
2023/04/03 04:04:20;;;;;;;;;;;6.30;21.70;;;;;;5135180;27;19907;-73
2023/04/03 04:06:46;;;;;;;;;;;6.30;20.00;;;;;;5135472;27;19982;-73
2023/04/03 04:09:12;;;;;;;;;;;6.40;21.20;;;;;;5135151;27;19914;-72
2023/04/03 04:11:39;;;;;;;;;;;6.40;19.80;;;;;;5135074;27;19998;-71
2023/04/03 04:14:05;;;;;;;;;;;6.40;20.30;;;;;;5116599;27;19908;-74
2023/04/03 04:16:30;;;;;;;;;;;6.40;21.80;;;;;;5135101;27;20295;-73
2023/04/03 04:18:56;;;;;;;;;;;6.50;23.30;;;;;;5135015;27;19911;-72
2023/04/03 04:21:21;;;;;;;;;;;6.60;23.00;;;;;;5135248;27;19919;-72
2023/04/03 04:23:47;;;;;;;;;;;6.60;23.50;;;;;;5116553;27;19907;-74
2023/04/03 04:26:13;;;;;;;;;;;6.60;23.00;;;;;;5134919;27;19911;-73
2023/04/03 04:28:38;;;;;;;;;;;6.60;25.60;;;;;;5134792;27;19908;-72
2023/04/03 04:31:04;;;;;;;;;;;6.70;26.00;;;;;;5116698;28;19914;-72
2023/04/03 04:33:29;;;;;;;;;;;6.80;24.80;;;;;;5134972;27;20005;-72
2023/04/03 04:35:55;;;;;;;;;;;6.80;23.80;;;;;;5134567;27;20315;-74
2023/04/03 04:38:21;;;;;;;;;;;6.90;24.90;;;;;;5134704;27;19915;-73
2023/04/03 04:40:47;;;;;;;;;;;6.90;25.80;;;;;;5134315;27;19975;-73
2023/04/03 04:43:14;;;;;;;;;;;6.80;23.40;;;;;;5116106;28;19908;-72
2023/04/03 04:45:40;;;;;;;;;;;6.80;23.80;;;;;;5134858;28;19911;-72
2023/04/03 04:48:05;;;;;;;;;;;6.60;26.90;;;;;;5134639;28;19908;-74
2023/04/03 04:50:31;;;;;;;;;;;6.50;29.40;;;;;;5134598;28;20420;-74
2023/04/03 04:52:57;;;;;;;;;;;6.40;28.50;;;;;;5134557;28;19911;-73
2023/04/03 04:55:22;;;;;;;;;;;6.50;33.30;;;;;;5134888;28;19907;-71
2023/04/03 04:57:48;;;;;;;;;;;6.60;27.20;;;;;;5134626;27;19962;-74
2023/04/03 05:00:14;;;;;;;;;;;6.50;27.00;;;;;;5134403;28;19912;-72
2023/04/03 05:02:40;;;;;;;;;;;6.50;27.00;;;;;;5134753;28;20291;-72
2023/04/03 05:05:05;;;;;;;;;;;6.50;25.20;;;;;;5134528;28;19908;-72
2023/04/03 05:07:31;;;;;;;;;;;6.50;24.50;;;;;;5116047;28;19914;-72
2023/04/03 05:09:56;;;;;;;;;;;6.40;21.30;;;;;;5134404;28;19911;-71
2023/04/03 05:12:22;;;;;;;;;;;6.10;22.30;;;;;;5134402;28;19914;-71
2023/04/03 05:14:48;;;;;;;;;;;5.90;27.00;;;;;;5115912;28;20271;-72
2023/04/03 05:17:13;;;;;;;;;;;5.70;30.50;;;;;;5134690;28;19972;-73
2023/04/03 05:19:39;;;;;;;;;;;5.70;25.90;;;;;;5134476;28;19947;-72
2023/04/03 05:22:05;;;;;;;;;;;5.70;24.90;;;;;;5134327;28;19972;-72
2023/04/03 05:24:30;;;;;;;;;;;5.70;22.70;;;;;;5134268;28;19914;-72
2023/04/03 05:26:56;;;;;;;;;;;5.70;20.80;;;;;;5134273;28;19907;-72
2023/04/03 05:29:22;;;;;;;;;;;5.70;20.50;;;;;;5134254;28;19954;-72
2023/04/03 05:31:49;;;;;;;;;;;5.70;18.20;;;;;;5134192;28;19961;-71
2023/04/03 05:34:14;;;;;;;;;;;5.70;20.00;;;;;;5134150;28;20325;-71
2023/04/03 05:36:40;;;;;;;;;;;5.80;18.00;;;;;;5134640;28;19959;-72
2023/04/03 05:39:06;;;;;;;;;;;5.80;16.70;;;;;;5115546;28;19907;-72
2023/04/03 05:41:31;;;;;;;;;;;5.80;14.60;;;;;;5134218;28;20314;-71
2023/04/03 05:43:57;;;;;;;;;;;5.80;16.40;;;;;;5134307;28;19912;-72
2023/04/03 05:46:22;;;;;;;;;;;5.80;12.80;;;;;;5134108;27;19907;-72
2023/04/03 05:48:48;;;;;;;;;;;5.80;12.50;;;;;;5136977;27;20386;-72
2023/04/03 05:51:15;;;;;;;;;;;5.70;14.30;;;;;;5137640;27;20317;-72
2023/04/03 05:53:42;;;;;;;;;;;5.80;16.00;;;;;;5137711;27;19908;-72
2023/04/03 05:56:07;;;;;;;;;;;5.80;17.40;;;;;;5137587;27;19908;-72
2023/04/03 05:58:33;;;;;;;;;;;5.70;21.50;;;;;;5137656;27;19907;-72
2023/04/03 06:00:59;;;;;;;;;;;5.70;20.30;;;;;;5137515;27;19912;-72
2023/04/03 06:03:25;;;;;;;;;;;5.70;22.20;;;;;;5119127;27;20373;-72
2023/04/03 06:05:50;;;;;;;;;;;5.70;18.80;;;;;;5137497;27;19998;-73
2023/04/03 06:08:16;;;;;;;;;;;5.60;20.50;;;;;;5137673;27;19942;-73
2023/04/03 06:10:42;;;;;;;;;;;5.60;23.00;;;;;;5137438;27;19943;-72
2023/04/03 06:13:07;;;;;;;;;;;5.60;19.20;;;;;;5137559;27;19908;-71
2023/04/03 06:15:33;;;;;;;;;;;5.70;17.40;;;;;;5137660;27;20376;-73
2023/04/03 06:17:59;;;;;;;;;;;5.80;12.60;;;;;;5137278;27;19908;-72
2023/04/03 06:20:25;;;;;;;;;;;5.90;9.10;;;;;;5137188;27;19964;-73
2023/04/03 06:22:51;;;;;;;;;;;5.90;10.90;;;;;;5118714;27;19990;-72
2023/04/03 06:25:18;;;;;;;;;;;6.00;7.30;;;;;;5137153;27;19911;-71
2023/04/03 06:27:44;;;;;;;;;;;6.30;8.20;;;;;;5137051;27;20369;-74
2023/04/03 06:30:10;;;;;;;;;;;6.40;4.40;;;;;;5137032;27;19907;-71
2023/04/03 06:32:36;;;;;;;;;;;6.50;1.20;;;;;;5137191;27;19907;-72
2023/04/03 06:35:02;;;;;;;;;;;6.40;1.00;;;;;;5136915;27;19908;-72
2023/04/03 06:37:28;;;;;;;;;;;6.40;1.00;;;;;;5137135;27;19994;-72
2023/04/03 06:39:54;;;;;;;;;;;6.50;1.00;;;;;;5118065;27;19919;-72
2023/04/03 06:42:20;;;;;;;;;;;6.30;1.00;;;;;;5136823;27;19931;-71
2023/04/03 06:44:46;;;;;;;;;;;6.40;1.00;;;;;;5136976;27;20325;-71
2023/04/03 06:47:14;;;;;;;;;;;6.50;1.00;;;;;;5136760;27;19907;-72
2023/04/03 06:49:39;;;;;;;;;;;6.80;1.00;;;;;;5136678;27;19914;-73
2023/04/03 06:52:05;;;;;;;;;;;6.70;1.00;;;;;;5136623;27;19908;-72
2023/04/03 06:54:31;;;;;;;;;;;6.80;1.00;;;;;;5136557;27;20393;-72
2023/04/03 06:56:57;;;;;;;;;;;6.70;1.00;;;;;;5136594;27;19907;-72
2023/04/03 06:59:23;;;;;;;;;;;6.80;1.00;;;;;;5136649;27;19907;-72
2023/04/03 07:01:48;;;;;;;;;;;7.10;1.00;;;;;;5136358;27;20275;-71
2023/04/03 07:04:15;;;;;;;;;;;7.00;1.00;;;;;;5136390;27;20349;-72
2023/04/03 07:06:41;;;;;;;;;;;7.00;1.00;;;;;;5136489;27;19907;-73
2023/04/03 07:09:07;;;;;;;;;;;7.00;1.00;;;;;;5117825;27;20322;-71
2023/04/03 07:11:33;;;;;;;;;;;7.00;1.00;;;;;;5136297;27;19914;-71
2023/04/03 07:13:58;;;;;;;;;;;6.90;1.00;;;;;;5136181;27;19942;-71
2023/04/03 07:16:24;;;;;;;;;;;6.90;1.00;;;;;;5136090;27;20051;-71
2023/04/03 07:18:50;;;;;;;;;;;6.80;1.00;;;;;;5136136;27;19929;-71
2023/04/03 07:21:15;;;;;;;;;;;6.90;1.00;;;;;;5136096;27;19911;-72
2023/04/03 07:23:41;;;;;;;;;;;7.00;1.00;;;;;;5117536;27;19911;-73
2023/04/03 07:26:07;;;;;;;;;;;7.10;1.00;;;;;;5135873;27;20016;-72
2023/04/03 07:28:33;;;;;;;;;;;7.20;1.00;;;;;;5136012;27;19907;-73
2023/04/03 07:31:03;;;;;;;;;;;7.20;1.00;;;;;;5136032;27;19907;-72
2023/04/03 07:33:29;;;;;;;;;;;7.20;1.00;;;;;;5135423;27;19915;-71
2023/04/03 07:35:55;;;;;;;;;;;7.20;1.00;;;;;;5135747;27;20305;-73
2023/04/03 07:38:20;;;;;;;;;;;7.20;1.00;;;;;;5135670;27;19907;-72
2023/04/03 07:40:47;;;;;;;;;;;7.10;1.00;;;;;;5135358;27;19926;-74
2023/04/03 07:43:13;;;;;;;;;;;6.90;1.00;;;;;;5117152;27;20317;-72
2023/04/03 07:45:39;;;;;;;;;;;6.80;1.00;;;;;;5135566;27;20267;-72
2023/04/03 07:48:04;;;;;;;;;;;6.90;1.00;;;;;;5135162;27;20005;-73
2023/04/03 07:50:31;;;;;;;;;;;6.90;1.00;;;;;;5135449;27;19907;-72
2023/04/03 07:52:57;;;;;;;;;;;7.00;1.00;;;;;;5135405;27;19907;-71
2023/04/03 07:55:23;;;;;;;;;;;7.30;1.00;;;;;;5135371;27;19915;-71
2023/04/03 07:57:49;;;;;;;;;;;7.40;1.00;;;;;;5135718;27;19908;-72
2023/04/03 08:00:17;;;;;;;;;;;7.30;1.00;;;;;;5135218;27;20371;-71
2023/04/03 08:02:44;;;;;;;;;;;7.10;1.00;;;;;;5116849;27;19907;-73
2023/04/03 08:05:10;;;;;;;;;;;7.10;1.00;;;;;;5135225;27;19914;-71
2023/04/03 08:07:36;;;;;;;;;;;7.30;1.00;;;;;;5135152;27;19915;-71
2023/04/03 08:10:02;;;;;;;;;;;7.40;1.00;;;;;;5134726;27;19912;-73
2023/04/03 08:12:29;;;;;;;;;;;7.40;1.00;;;;;;5116628;27;20428;-73
2023/04/03 08:14:55;;;;;;;;;;;7.30;1.00;;;;;;5135206;27;19907;-74
2023/04/03 08:17:21;;;;;;;;;;;7.40;1.00;;;;;;5135077;27;19969;-73
2023/04/03 08:19:47;;;;;;;;;;;7.30;1.00;;;;;;5134990;27;19912;-72
2023/04/03 08:22:12;;;;;;;;;;;7.50;1.00;;;;;;5134944;27;20343;-72
2023/04/03 08:24:38;;;;;;;;;;;7.60;1.00;;;;;;5135239;27;19911;-72
2023/04/03 08:27:03;;;;;;;;;;;7.60;1.00;;;;;;5135072;27;19907;-72
2023/04/03 08:29:29;;;;;;;;;;;7.70;1.00;;;;;;5134856;27;19914;-74
2023/04/03 08:31:55;;;;;;;;;;;7.90;1.00;;;;;;5135215;27;19955;-71
2023/04/03 08:34:21;;;;;;;;;;;8.00;1.00;;;;;;5116309;27;20419;-72
2023/04/03 08:36:46;;;;;;;;;;;8.20;1.00;;;;;;5116251;27;19915;-72
2023/04/03 08:39:12;;;;;;;;;;;8.30;1.00;;;;;;5116160;27;19907;-72
2023/04/03 08:41:39;;;;;;;;;;;8.20;1.00;;;;;;5115992;28;19919;-72
2023/04/03 08:44:16;;;;;;;;;;;8.50;1.00;;;;;;5134681;28;19907;-72
2023/04/03 08:47:00;;;;;;;;;;;8.50;1.00;;;;;;5116222;28;19908;-71
2023/04/03 08:49:28;;;;;;;;;;;8.40;1.00;;;;;;5134741;28;19943;-72
2023/04/03 08:51:55;;;;;;;;;;;8.70;1.00;;;;;;5134623;28;19908;-73
2023/04/03 08:54:32;;;;;;;;;;;8.80;1.00;;;;;;5134766;28;19922;-72
2023/04/03 08:56:57;;;;;;;;;;;8.70;1.00;;;;;;5134699;27;19908;-74
2023/04/03 08:59:26;;;;;;;;;;;9.00;1.00;;;;;;5134566;28;19907;-71
2023/04/03 09:01:52;;;;;;;;;;;8.80;1.00;;;;;;5134404;28;19911;-71
2023/04/03 09:04:18;;;;;;;;;;;9.00;1.00;;;;;;5134476;28;19912;-72
2023/04/03 09:06:49;;;;;;;;;;;9.10;1.00;;;;;;5134449;28;19908;-72
2023/04/03 09:09:30;;;;;;;;;;;9.40;1.00;;;;;;5134509;28;20004;-72
2023/04/03 09:12:11;;;;;;;;;;;9.40;1.00;;;;;;5134763;28;19907;-71
2023/04/03 09:14:55;;;;;;;;;;;9.40;1.00;;;;;;5134396;28;20390;-72
2023/04/03 09:17:21;;;;;;;;;;;9.40;1.00;;;;;;5134399;28;19986;-72
2023/04/03 09:19:46;;;;;;;;;;;9.80;1.00;;;;;;5134481;28;19947;-72
2023/04/03 09:22:12;;;;;;;;;;;9.80;1.00;;;;;;5116382;27;19912;-72
2023/04/03 09:24:38;;;;;;;;;;;10.40;1.00;;;;;;5138471;27;19911;-72
2023/04/03 09:27:07;;;;;;;;;;;10.70;1.00;;;;;;5138297;27;19956;-72
2023/04/03 09:29:36;;;;;;;;;;;11.10;1.00;;;;;;5138212;27;19907;-72
2023/04/03 09:32:08;;;;;;;;;;;11.50;1.00;;;;;;5138615;27;19907;-73
2023/04/03 09:34:36;;;;;;;;;;;11.50;1.00;;;;;;5138351;27;19908;-72
2023/04/03 09:37:08;;;;;;;;;;;11.20;1.00;;;;;;5138316;27;19908;-73
2023/04/03 09:39:54;;;;;;;;;;;10.90;1.00;;;;;;5137780;27;19926;-72
2023/04/03 09:42:23;;;;;;;;;;;10.50;1.00;;;;;;5138018;27;19908;-72
2023/04/03 09:45:00;;;;;;;;;;;10.50;1.00;;;;;;5138125;27;19933;-73
2023/04/03 09:47:29;;;;;;;;;;;10.70;1.00;;;;;;5137906;27;20328;-73
2023/04/03 09:50:10;;;;;;;;;;;10.50;1.00;;;;;;5137994;27;19907;-72
2023/04/03 09:52:36;;;;;;;;;;;10.30;1.00;;;;;;5137804;27;19930;-73
2023/04/03 09:55:13;;;;;;;;;;;10.50;1.00;;;;;;5137753;27;20393;-73
2023/04/03 09:57:39;;;;;;;;;;;10.50;1.00;;;;;;5137873;27;19914;-73
2023/04/03 10:00:05;;;;;;;;;;;10.40;1.00;;;;;;5137599;27;20006;-73
2023/04/03 10:02:35;;;;;;;;;;;10.30;1.00;;;;;;5137598;27;19915;-72
2023/04/03 10:05:01;;;;;;;;;;;10.40;1.00;;;;;;5119102;27;19907;-73
2023/04/03 10:07:27;;;;;;;;;;;10.70;1.00;;;;;;5119098;27;19911;-72
2023/04/03 10:09:57;;;;;;;;;;;10.90;1.00;;;;;;5137550;27;20286;-73
2023/04/03 10:12:22;;;;;;;;;;;11.60;1.00;;;;;;5137442;27;19965;-73
2023/04/03 10:14:56;;;;;;;;;;;11.70;1.00;;;;;;5137329;27;20007;-72
2023/04/03 10:17:24;;;;;;;;;;;11.40;1.00;;;;;;5137273;27;19908;-71
2023/04/03 10:19:52;;;;;;;;;;;11.40;1.00;;;;;;5137334;27;20367;-71
2023/04/03 10:22:21;;;;;;;;;;;11.50;1.00;;;;;;5137287;27;19954;-71
2023/04/03 10:25:23;;;;;;;;;;;11.70;1.00;;;;;;5137139;27;19911;-72
2023/04/03 10:28:00;;;;;;;;;;;11.70;1.00;;;;;;5034289;28;20011;-72
2023/04/03 10:30:36;;;;;;;;;;;11.80;1.00;;;;;;5123974;27;19952;-73
2023/04/03 10:33:13;;;;;;;;;;;12.10;1.00;;;;;;5136614;27;19915;-72
2023/04/03 10:35:53;;;;;;;;;;;11.90;1.00;;;;;;5136979;27;19915;-73
2023/04/03 10:38:23;;;;;;;;;;;12.10;1.00;;;;;;5136987;27;19915;-72
2023/04/03 10:40:57;;;;;;;;;;;11.80;1.00;;;;;;5136597;27;19984;-73
2023/04/03 10:43:23;;;;;;;;;;;11.80;1.00;;;;;;5118089;27;19908;-72
2023/04/03 10:45:55;;;;;;;;;;;11.90;1.00;;;;;;5136950;27;19914;-71
2023/04/03 10:48:21;;;;;;;;;;;11.90;1.00;;;;;;5136761;27;19951;-73
2023/04/03 10:50:46;;;;;;;;;;;12.20;1.00;;;;;;5136680;27;20064;-72
2023/04/03 10:53:32;;;;;;;;;;;12.40;1.00;;;;;;5136593;27;20253;-72
2023/04/03 10:56:17;;;;;;;;;;;12.40;1.00;;;;;;5136977;27;20030;-72
2023/04/03 10:58:44;;;;;;;;;;;12.90;1.00;;;;;;5136523;27;19914;-72
2023/04/03 11:01:16;;;;;;;;;;;12.80;1.00;;;;;;5136840;27;19976;-73
2023/04/03 11:03:47;;;;;;;;;;;12.80;1.00;;;;;;5136392;27;19907;-74
2023/04/03 11:06:14;;;;;;;;;;;12.80;1.00;;;;;;5136368;27;19914;-73
2023/04/03 11:08:49;;;;;;;;;;;13.10;1.00;;;;;;5136347;27;19907;-72
2023/04/03 11:11:16;;;;;;;;;;;15.40;1.00;;;;;;5136474;27;19907;-74
2023/04/03 11:13:51;;;;;;;;;;;16.30;1.00;;;;;;5136213;27;19907;-74
2023/04/03 11:16:28;;;;;;;;;;;16.10;1.00;;;;;;5136111;27;20268;-73
2023/04/03 11:18:57;;;;;;;;;;;17.10;1.00;;;;;;5136102;27;19908;-73
2023/04/03 11:21:30;;;;;;;;;;;18.40;1.00;;;;;;5117511;27;19957;-73
2023/04/03 11:23:58;;;;;;;;;;;18.80;1.00;;;;;;5136024;27;19908;-75
2023/04/03 11:26:27;;;;;;;;;;;20.80;1.00;;;;;;5117484;27;19956;-72
2023/04/03 11:28:56;;;;;;;;;;;19.20;1.00;;;;;;5135918;27;19907;-73
2023/04/03 11:31:21;;;;;;;;;;;19.10;1.00;;;;;;5136028;27;19911;-73
2023/04/03 11:34:06;;;;;;;;;;;22.90;1.00;;;;;;5117398;27;19911;-74
2023/04/03 11:36:48;;;;;;;;;;;26.50;1.00;;;;;;5117395;27;19907;-74
2023/04/03 11:39:43;;;;;;;;;;;29.00;1.00;;;;;;5135658;27;19908;-75
2023/04/03 11:42:17;;;;;;;;;;;26.10;1.00;;;;;;5113329;27;20354;-73
2023/04/03 11:44:43;;;;;;;;;;;25.30;1.00;;;;;;5135256;27;19907;-75
2023/04/03 11:47:10;;;;;;;;;;;29.10;1.00;;;;;;5135510;27;19915;-77
2023/04/03 11:49:54;;;;;;;;;;;31.00;1.00;;;;;;5135555;27;20356;-75
2023/04/03 11:52:37;;;;;;;;;;;31.90;1.00;;;;;;5135916;27;19914;-75
2023/04/03 11:55:21;;;;;;;;;;;32.60;1.00;;;;;;5135448;27;19913;-75
2023/04/03 11:58:03;;;;;;;;;;;33.70;1.00;;;;;;5135263;27;19908;-74
2023/04/03 12:00:44;;;;;;;;;;;34.20;1.00;;;;;;5135582;27;20006;-76
2023/04/03 12:03:22;;;;;;;;;;;33.80;1.00;;;;;;5135410;27;19908;-75
2023/04/03 12:05:47;;;;;;;;;;;35.00;1.00;;;;;;5135209;27;20272;-75
2023/04/03 12:08:30;;;;;;;;;;;34.60;1.00;;;;;;5135537;27;19918;-74
2023/04/03 12:11:18;;;;;;;;;;;34.40;1.00;;;;;;5135047;27;19911;-72
2023/04/03 12:13:56;;;;;;;;;;;36.40;1.00;;;;;;5119261;27;19908;-73
2023/04/03 12:16:26;;;;;;;;;;;35.60;1.00;;;;;;5135029;27;19912;-74
2023/04/03 12:18:55;;;;;;;;;;;35.80;1.00;;;;;;5134948;27;19908;-73
2023/04/03 12:21:21;;;;;;;;;;;36.50;1.00;;;;;;5135043;27;19916;-73
2023/04/03 12:24:13;;;;;;;;;;;36.00;1.00;;;;;;5134956;27;19914;-73
2023/04/03 12:26:41;;;;;;;;;;;36.60;1.00;;;;;;5095615;27;19994;-73
2023/04/03 12:29:14;;;;;;;;;;;35.80;1.00;;;;;;5134881;27;19915;-71
2023/04/03 12:31:45;;;;;;;;;;;36.10;1.00;;;;;;5134734;27;20009;-72
2023/04/03 12:34:26;;;;;;;;;;;37.90;1.00;;;;;;5135179;27;19958;-73
2023/04/03 12:36:59;;;;;;;;;;;37.60;1.00;;;;;;5134878;27;19914;-73
2023/04/03 12:39:41;;;;;;;;;;;37.70;1.00;;;;;;5134555;27;20002;-72
2023/04/03 12:42:32;;;;;;;;;;;37.20;1.00;;;;;;5134713;27;19907;-71
2023/04/03 12:45:24;;;;;;;;;;;36.00;1.00;;;;;;5134877;28;19911;-71
2023/04/03 12:47:51;;;;;;;;;;;36.70;1.00;;;;;;5129649;28;19907;-72
2023/04/03 12:50:37;;;;;;;;;;;36.60;1.00;;;;;;5134575;28;19911;-71
2023/04/03 12:53:07;;;;;;;;;;;37.40;1.00;;;;;;5133858;28;19935;-72
2023/04/03 12:55:32;;;;;;;;;;;37.10;1.00;;;;;;5134610;28;19915;-73
2023/04/03 12:58:13;;;;;;;;;;;38.50;1.00;;;;;;5138201;27;20283;-73
2023/04/03 13:00:39;;;;;;;;;;;37.80;1.00;;;;;;5139119;27;19950;-72
2023/04/03 13:03:06;;;;;;;;;;;38.90;1.00;;;;;;5138753;27;20395;-73
2023/04/03 13:05:32;;;;;;;;;;;38.90;1.00;;;;;;5138753;27;19954;-72
2023/04/03 13:08:03;;;;;;;;;;;37.90;1.00;;;;;;5138640;27;19911;-73
2023/04/03 13:10:28;;;;;;;;;;;36.50;1.00;;;;;;5138579;27;19954;-72
2023/04/03 13:12:55;;;;;;;;;;;37.30;1.00;;;;;;5138593;27;19950;-72
2023/04/03 13:15:22;;;;;;;;;;;39.10;1.00;;;;;;5138537;27;19907;-73
2023/04/03 13:17:49;;;;;;;;;;;38.80;1.00;;;;;;5138503;27;19915;-70
2023/04/03 13:20:18;;;;;;;;;;;37.00;1.00;;;;;;5138458;27;20378;-72
2023/04/03 13:22:46;;;;;;;;;;;36.50;1.00;;;;;;5138496;27;20327;-72
2023/04/03 13:25:13;;;;;;;;;;;37.70;1.00;;;;;;5138412;27;19956;-71
2023/04/03 13:27:42;;;;;;;;;;;36.80;1.00;;;;;;5138329;27;20292;-72
2023/04/03 13:30:28;;;;;;;;;;;36.00;1.00;;;;;;5138184;27;19922;-72
2023/04/03 13:32:58;;;;;;;;;;;36.90;1.00;;;;;;5137536;27;19915;-72
2023/04/03 13:35:25;;;;;;;;;;;36.80;1.00;;;;;;5138169;27;19914;-73
2023/04/03 13:37:55;;;;;;;;;;;36.70;1.00;;;;;;5138022;27;19907;-72
2023/04/03 13:40:22;;;;;;;;;;;36.50;1.00;;;;;;5137806;27;19934;-72
2023/04/03 13:42:58;;;;;;;;;;;36.20;1.00;;;;;;5138025;27;19957;-73
2023/04/03 13:45:27;;;;;;;;;;;37.80;1.00;;;;;;5138088;27;20351;-72
2023/04/03 13:47:55;;;;;;;;;;;39.80;1.00;;;;;;5119530;27;19956;-72
2023/04/03 13:50:22;;;;;;;;;;;40.70;1.00;;;;;;5137964;27;19911;-73
2023/04/03 13:52:50;;;;;;;;;;;39.00;1.00;;;;;;5137936;27;20010;-72
2023/04/03 13:55:27;;;;;;;;;;;39.90;1.00;;;;;;5137814;27;19913;-71
2023/04/03 13:58:00;;;;;;;;;;;38.70;1.00;;;;;;5137573;27;19908;-73
2023/04/03 14:00:28;;;;;;;;;;;40.10;1.00;;;;;;5137677;27;19907;-74
2023/04/03 14:02:56;;;;;;;;;;;38.60;1.00;;;;;;5137780;27;20279;-76
2023/04/03 14:05:23;;;;;;;;;;;36.20;1.00;;;;;;5137567;27;19996;-73
2023/04/03 14:07:49;;;;;;;;;;;34.60;1.00;;;;;;5136875;27;19907;-75
2023/04/03 14:10:14;;;;;;;;;;;33.40;1.00;;;;;;5137281;27;19918;-74
2023/04/03 14:12:40;;;;;;;;;;;33.40;1.00;;;;;;5137754;27;19907;-75
2023/04/03 14:15:20;;;;;;;;;;;33.40;1.00;;;;;;5137642;27;19960;-74
2023/04/03 14:17:46;;;;;;;;;;;32.30;1.00;;;;;;5137338;27;19914;-74
2023/04/03 14:20:15;;;;;;;;;;;32.70;1.00;;;;;;5137307;27;19908;-74
2023/04/03 14:22:41;;;;;;;;;;;33.40;1.00;;;;;;5137259;27;20002;-75
2023/04/03 14:25:07;;;;;;;;;;;33.10;1.00;;;;;;5137332;27;19943;-74
2023/04/03 14:27:38;;;;;;;;;;;32.50;1.00;;;;;;5137181;27;19956;-73
2023/04/03 14:30:05;;;;;;;;;;;32.60;1.00;;;;;;5137391;27;19911;-74
2023/04/03 14:32:30;;;;;;;;;;;33.50;1.00;;;;;;5118582;27;19908;-73
2023/04/03 14:34:57;;;;;;;;;;;33.80;1.00;;;;;;5136986;27;19956;-73
2023/04/03 14:37:26;;;;;;;;;;;32.40;1.00;;;;;;5118584;27;19914;-74
2023/04/03 14:39:53;;;;;;;;;;;32.60;1.00;;;;;;5118328;27;19926;-73